Saraland, Alabama
Current Conditions -  °F | °C
As of 8:53 PM on Monday 26 Jan 2015 (Local Time) from KBFM Reporting Station
Clear Clear  
Wind Chill: 40°   Ceiling: Unl
Heat Index: 43°   Visibility: 10mi
Dew Point: 34°   Wind: 5mph
Humidity: 71%   Direction: 240°WSW
Pressure: 30.07"   Gusts: NA
Location:  30.8°N, 88.09°W
Report Text: KBFM 270253Z 24004KT 10SM CLR 06/01 A3007 RMK AO2 SLP183 T00610011 50003
Loading
Personal Weather Stations






























Interactive Weather Map New forecast layout! Learn more

10-Day Weather Forecast

Advertisements
Track Severe Weather on mobile